首页
METAR-TAF:

METAR-TAF

机场 :

八尾機場

八尾, 日本

纬度: 34-36N, 经度: 135-36E, 海拔: 10米

当前天气观测

该预报发布于21分钟前的04:00 UTC
风速18节,风向西,有时为28节阵风,在西南西转西北之间变化
温度 10°C
湿度 50%
气压 1008 hPa
能见度10公里或以上
少量云层高于3000英尺
散云层高于5000英尺

METAR: RJOY 170400Z 27018G28KT 230V290 9999 FEW030 SCT050 10/M00 Q1008

时间: 13:21 (04:21 UTC)


TAF: 丢失

超过4000个机场的气象观测和天气预报(METAR&TAF报告)。

可查询的气象台以黄色和红色小点在地图上表示。

将鼠标移到小点上方,可查看气象台名称。

然后点击查看天气观测和预报。

如需切换地图:点击带黑十字的绿色按钮放大地图;点击带横线的绿色按钮缩小地图;或者点击绿色箭头查看邻近地区的地图。


METAR-TAF: